createdAt,value
2019-05-01T00:00:18.375Z,76.35
2019-05-01T00:01:19.769Z,76.16
2019-05-01T00:02:21.166Z,75.96
2019-05-01T00:03:22.573Z,76.25
2019-05-01T00:04:23.963Z,76.45
2019-05-01T00:05:25.360Z,76.92
2019-05-01T00:06:26.770Z,76.54
2019-05-01T00:07:28.168Z,77.11
2019-05-01T00:08:29.578Z,77.11
2019-05-01T00:09:30.972Z,77.40
2019-05-01T00:10:32.406Z,77.40
2019-05-01T00:11:33.858Z,77.69
2019-05-01T00:12:35.300Z,77.97
2019-05-01T00:13:36.685Z,77.78
2019-05-01T00:14:38.082Z,77.78
2019-05-01T00:15:39.525Z,77.78
2019-05-01T00:16:40.925Z,78.07
2019-05-01T00:17:42.319Z,78.07
2019-05-01T00:18:43.723Z,78.55
2019-05-01T00:19:45.155Z,78.26
2019-05-01T00:20:46.633Z,78.74
2019-05-01T00:21:48.031Z,78.45
2019-05-01T00:22:49.423Z,78.16
2019-05-01T00:23:50.821Z,78.55
2019-05-01T00:24:52.337Z,78.26
2019-05-01T00:25:53.746Z,77.97
2019-05-01T00:26:55.139Z,77.97
2019-05-01T00:27:56.531Z,78.55
2019-05-01T00:28:57.955Z,78.74
2019-05-01T00:29:59.380Z,78.74
2019-05-01T00:31:00.765Z,79.12
2019-05-01T00:32:02.158Z,79.02
2019-05-01T00:33:03.557Z,78.93
2019-05-01T00:34:04.954Z,79.22
2019-05-01T00:35:06.350Z,79.60
2019-05-01T00:36:07.746Z,79.79
2019-05-01T00:37:09.141Z,79.79
2019-05-01T00:38:10.536Z,79.69
2019-05-01T00:39:11.978Z,79.98
2019-05-01T00:40:13.362Z,79.98
2019-05-01T00:41:14.754Z,80.36
2019-05-01T00:42:16.146Z,80.46
2019-05-01T00:43:17.531Z,80.74
2019-05-01T00:44:18.920Z,80.93
2019-05-01T00:45:20.318Z,80.65
2019-05-01T00:46:21.700Z,80.84
2019-05-01T00:47:23.094Z,81.13
2019-05-01T00:48:24.484Z,81.32
2019-05-01T00:49:25.870Z,81.32
2019-05-01T00:50:27.257Z,81.60
2019-05-01T00:51:28.648Z,81.70
2019-05-01T00:52:30.043Z,82.28
2019-05-01T00:53:31.430Z,82.18
2019-05-01T00:54:32.821Z,82.08
2019-05-01T00:55:34.215Z,82.37
2019-05-01T00:56:35.611Z,82.46
2019-05-01T00:57:37.006Z,82.75
2019-05-01T00:58:38.395Z,81.79
2019-05-01T00:59:39.779Z,82.56
2019-05-01T01:00:43.211Z,82.37
2019-05-01T01:01:42.518Z,82.56
2019-05-01T01:02:43.965Z,82.28
2019-05-01T01:03:45.351Z,83.04
2019-05-01T01:04:46.753Z,83.13
2019-05-01T01:05:48.146Z,83.61
2019-05-01T01:06:49.542Z,83.18
2019-05-01T01:07:50.933Z,83.23
2019-05-01T01:08:52.322Z,83.33
2019-05-01T01:09:53.710Z,83.09
2019-05-01T01:10:55.094Z,83.47
2019-05-01T01:11:56.511Z,83.47
2019-05-01T01:12:57.903Z,83.76
2019-05-01T01:13:59.286Z,83.76
2019-05-01T01:15:00.679Z,84.43
2019-05-01T01:16:02.069Z,83.76
2019-05-01T01:17:03.464Z,84.14
2019-05-01T01:18:04.866Z,84.05
2019-05-01T01:19:06.256Z,84.33
2019-05-01T01:20:07.632Z,84.81
2019-05-01T01:21:09.034Z,84.72
2019-05-01T01:22:10.421Z,84.33
2019-05-01T01:23:11.819Z,84.52
2019-05-01T01:24:13.218Z,84.72
2019-05-01T01:25:14.600Z,85.29
2019-05-01T01:26:15.985Z,85.19
2019-05-01T01:27:17.386Z,85.29
2019-05-01T01:28:18.792Z,85.19
2019-05-01T01:29:20.217Z,85.67
2019-05-01T01:30:21.581Z,85.67
2019-05-01T01:31:22.971Z,85.67
2019-05-01T01:32:24.357Z,86.15
2019-05-01T01:33:25.745Z,86.24
2019-05-01T01:34:27.141Z,86.24
2019-05-01T01:35:28.530Z,86.15
2019-05-01T01:36:29.923Z,86.63
2019-05-01T01:37:31.309Z,86.82
2019-05-01T01:38:32.706Z,86.63
2019-05-01T01:39:34.103Z,86.91
2019-05-01T01:40:35.504Z,86.91
2019-05-01T01:41:36.900Z,87.96
2019-05-01T01:42:38.294Z,88.06
2019-05-01T01:43:39.683Z,88.54
2019-05-01T01:44:41.092Z,89.68
2019-05-01T01:45:42.484Z,89.68
2019-05-01T01:46:43.876Z,90.25
2019-05-01T01:47:45.268Z,90.35
2019-05-01T01:48:46.656Z,90.92
2019-05-01T01:49:48.055Z,91.59
2019-05-01T01:50:49.448Z,91.40
2019-05-01T01:51:50.837Z,92.16
2019-05-01T01:52:52.246Z,92.64
2019-05-01T01:53:53.672Z,92.64
2019-05-01T01:54:55.059Z,93.70
2019-05-01T01:55:56.444Z,94.46
2019-05-01T01:56:57.846Z,93.88
2019-05-01T01:57:59.237Z,94.55
2019-05-01T01:59:00.630Z,94.65
2019-05-01T02:00:02.027Z,95.32
2019-05-01T02:01:09.344Z,95.22
2019-05-01T02:02:04.773Z,95.32
2019-05-01T02:03:06.155Z,95.51
2019-05-01T02:04:07.549Z,95.27
2019-05-01T02:05:08.937Z,95.89
2019-05-01T02:06:10.333Z,95.84
2019-05-01T02:07:11.728Z,95.65
2019-05-01T02:08:13.124Z,96.22
2019-05-01T02:09:14.520Z,96.03
2019-05-01T02:10:15.988Z,96.89
2019-05-01T02:11:17.262Z,96.42
2019-05-01T02:12:18.658Z,96.42
2019-05-01T02:13:20.046Z,96.80
2019-05-01T02:14:21.443Z,97.27
2019-05-01T02:15:22.838Z,96.70
2019-05-01T02:16:24.232Z,97.18
2019-05-01T02:17:25.626Z,97.08
2019-05-01T02:18:27.045Z,97.66
2019-05-01T02:19:28.431Z,97.27
2019-05-01T02:20:29.813Z,97.56
2019-05-01T02:21:31.197Z,97.27
2019-05-01T02:22:32.595Z,97.75
2019-05-01T02:23:33.986Z,97.75
2019-05-01T02:24:35.378Z,97.37
2019-05-01T02:25:36.773Z,97.56
2019-05-01T02:26:38.209Z,97.51
2019-05-01T02:27:39.607Z,97.56
2019-05-01T02:28:41.005Z,97.37
2019-05-01T02:29:42.397Z,97.89
2019-05-01T02:30:43.786Z,97.75
2019-05-01T02:31:45.175Z,97.56
2019-05-01T02:32:46.569Z,97.75
2019-05-01T02:33:47.961Z,97.99
2019-05-01T02:34:49.367Z,98.27
2019-05-01T02:35:50.765Z,98.08
2019-05-01T02:36:52.162Z,98.27
2019-05-01T02:37:53.544Z,98.08
2019-05-01T02:38:54.936Z,98.85
2019-05-01T02:39:56.321Z,98.94
2019-05-01T02:40:57.732Z,98.66
2019-05-01T02:41:59.109Z,98.85
2019-05-01T02:43:00.503Z,98.75
2019-05-01T02:44:01.897Z,99.23
2019-05-01T02:45:03.301Z,99.52
2019-05-01T02:46:04.687Z,99.13
2019-05-01T02:47:06.081Z,99.32
2019-05-01T02:48:07.477Z,99.99
2019-05-01T02:49:08.863Z,99.42
2019-05-01T02:50:10.267Z,99.80
2019-05-01T02:51:11.655Z,99.80
2019-05-01T02:52:13.050Z,99.90
2019-05-01T02:53:14.438Z,99.99
2019-05-01T02:54:15.835Z,99.99
2019-05-01T02:55:17.216Z,99.99
2019-05-01T02:56:18.619Z,99.99
2019-05-01T02:57:20.018Z,99.99
2019-05-01T02:58:21.407Z,99.99
2019-05-01T02:59:22.796Z,99.99
2019-05-01T03:00:24.187Z,99.99
2019-05-01T03:01:25.573Z,99.99
2019-05-01T03:02:26.993Z,99.99
2019-05-01T03:03:28.368Z,99.99
2019-05-01T03:04:29.754Z,99.99
2019-05-01T03:05:31.138Z,99.99
2019-05-01T03:06:32.533Z,99.99
2019-05-01T03:07:33.932Z,99.99
2019-05-01T03:08:35.311Z,99.99
2019-05-01T03:09:36.710Z,99.99
2019-05-01T03:10:38.104Z,99.99
2019-05-01T03:11:39.511Z,99.99
2019-05-01T03:12:40.887Z,99.99
2019-05-01T03:13:42.272Z,99.99
2019-05-01T03:14:43.667Z,99.99
2019-05-01T03:15:45.057Z,99.99
2019-05-01T03:16:46.450Z,99.99
2019-05-01T03:17:47.836Z,99.99
2019-05-01T03:18:49.228Z,99.99
2019-05-01T03:19:50.607Z,99.99
2019-05-01T03:20:52.012Z,99.99
2019-05-01T03:21:53.400Z,99.99
2019-05-01T03:22:54.789Z,99.99
2019-05-01T03:23:56.173Z,99.99
2019-05-01T03:24:57.567Z,99.99
2019-05-01T03:25:58.950Z,99.99
2019-05-01T03:27:00.348Z,99.99
2019-05-01T03:28:01.736Z,99.99
2019-05-01T03:29:03.128Z,99.99
2019-05-01T03:30:04.540Z,99.99
2019-05-01T03:31:05.940Z,99.99
2019-05-01T03:32:18.033Z,99.99
2019-05-01T03:33:08.907Z,99.99
2019-05-01T03:34:10.292Z,99.99
2019-05-01T03:35:11.681Z,99.99
2019-05-01T03:36:13.073Z,99.99
2019-05-01T03:37:14.461Z,99.99
2019-05-01T03:38:15.855Z,99.99
2019-05-01T03:39:17.255Z,99.99
2019-05-01T03:40:18.649Z,99.99
2019-05-01T03:41:20.041Z,99.99
2019-05-01T03:42:21.433Z,99.99
2019-05-01T03:43:22.828Z,99.99
2019-05-01T03:44:24.221Z,99.99
2019-05-01T03:45:25.617Z,99.99
2019-05-01T03:46:26.999Z,99.99
2019-05-01T03:47:28.391Z,99.99
2019-05-01T03:48:29.786Z,99.99
2019-05-01T03:49:31.176Z,99.99
2019-05-01T03:50:32.568Z,99.99
2019-05-01T03:51:33.972Z,99.99
2019-05-01T03:52:35.370Z,99.99
2019-05-01T03:53:36.769Z,99.99
2019-05-01T03:54:38.157Z,99.99
2019-05-01T03:55:39.555Z,99.99
2019-05-01T03:56:40.938Z,99.99
2019-05-01T03:57:42.345Z,99.99
2019-05-01T03:58:43.735Z,99.99
2019-05-01T03:59:45.122Z,99.99
2019-05-01T04:00:46.520Z,99.99
2019-05-01T04:01:47.923Z,99.99
2019-05-01T04:02:49.310Z,99.99
2019-05-01T04:03:50.725Z,99.99
2019-05-01T04:04:52.115Z,99.99
2019-05-01T04:05:53.563Z,99.99
2019-05-01T04:06:54.891Z,99.99
2019-05-01T04:07:56.287Z,99.99
2019-05-01T04:08:57.676Z,99.99
2019-05-01T04:09:59.083Z,99.99
2019-05-01T04:11:00.477Z,99.99
2019-05-01T04:12:01.870Z,99.99
2019-05-01T04:13:03.267Z,99.99
2019-05-01T04:14:04.670Z,99.99
2019-05-01T04:15:06.055Z,99.99
2019-05-01T04:16:07.452Z,99.99
2019-05-01T04:17:08.851Z,99.99
2019-05-01T04:18:10.237Z,99.99
2019-05-01T04:19:11.633Z,99.99
2019-05-01T04:20:13.024Z,99.99
2019-05-01T04:21:14.426Z,99.99
2019-05-01T04:22:15.798Z,99.99
2019-05-01T04:23:17.191Z,99.99
2019-05-01T04:24:18.586Z,99.99
2019-05-01T04:25:19.978Z,99.99
2019-05-01T04:26:21.369Z,99.99
2019-05-01T04:27:22.759Z,99.99
2019-05-01T04:28:24.157Z,99.99
2019-05-01T04:29:25.542Z,99.99
2019-05-01T04:30:26.941Z,99.99
2019-05-01T04:31:28.329Z,99.99
2019-05-01T04:32:29.716Z,99.99
2019-05-01T04:33:31.113Z,99.99
2019-05-01T04:34:32.507Z,99.99
2019-05-01T04:35:33.911Z,99.99
2019-05-01T04:36:35.313Z,99.99
2019-05-01T04:37:36.715Z,99.99
2019-05-01T04:38:38.115Z,99.99
2019-05-01T04:39:39.496Z,99.99
2019-05-01T04:40:40.893Z,99.99
2019-05-01T04:41:42.296Z,99.99
2019-05-01T04:42:43.685Z,99.99
2019-05-01T04:43:45.084Z,99.99
2019-05-01T04:44:46.481Z,99.99
2019-05-01T04:45:47.869Z,99.99
2019-05-01T04:46:49.272Z,99.99
2019-05-01T04:47:50.658Z,99.99
2019-05-01T04:48:52.054Z,99.99
2019-05-01T04:49:53.442Z,99.99
2019-05-01T04:50:54.829Z,99.99
2019-05-01T04:51:56.226Z,99.99
2019-05-01T04:52:57.615Z,99.99
2019-05-01T04:53:59.007Z,99.99
2019-05-01T04:55:00.403Z,99.99
2019-05-01T04:56:01.797Z,99.99
2019-05-01T04:57:03.200Z,99.99
2019-05-01T04:58:04.599Z,99.99
2019-05-01T04:59:05.996Z,99.99
2019-05-01T05:00:07.392Z,99.99
2019-05-01T05:01:08.787Z,99.99
2019-05-01T05:02:10.187Z,99.99
2019-05-01T05:03:11.588Z,99.99
2019-05-01T05:04:12.980Z,99.99
2019-05-01T05:05:14.391Z,99.99
2019-05-01T05:06:15.788Z,99.99
2019-05-01T05:07:17.174Z,99.99
2019-05-01T05:08:18.572Z,99.99
2019-05-01T05:09:19.967Z,99.99
2019-05-01T05:10:21.365Z,99.99
2019-05-01T05:11:22.755Z,99.99
2019-05-01T05:12:24.145Z,99.99
2019-05-01T05:13:25.541Z,99.99
2019-05-01T05:14:26.938Z,99.99
2019-05-01T05:15:28.334Z,99.99
2019-05-01T05:16:29.733Z,99.99
2019-05-01T05:17:31.121Z,99.99
2019-05-01T05:18:32.515Z,99.99
2019-05-01T05:19:34.045Z,99.99
2019-05-01T05:20:35.441Z,99.71
2019-05-01T05:21:36.850Z,99.71
2019-05-01T05:22:38.240Z,99.99
2019-05-01T05:23:39.638Z,99.71
2019-05-01T05:24:41.031Z,99.71
2019-05-01T05:25:42.433Z,99.99
2019-05-01T05:26:43.828Z,98.66
2019-05-01T05:27:45.232Z,98.85
2019-05-01T05:28:46.619Z,97.89
2019-05-01T05:29:48.016Z,97.71
2019-05-01T05:30:49.410Z,98.27
2019-05-01T05:31:50.804Z,98.08
2019-05-01T05:32:52.198Z,97.61
2019-05-01T05:33:53.603Z,97.61
2019-05-01T05:34:54.986Z,97.71
2019-05-01T05:35:56.368Z,97.61
2019-05-01T05:36:57.822Z,97.51
2019-05-01T05:37:59.155Z,97.71
2019-05-01T05:39:00.551Z,97.42
2019-05-01T05:40:01.994Z,97.51
2019-05-01T05:41:03.339Z,97.71
2019-05-01T05:42:04.731Z,97.51
2019-05-01T05:43:06.712Z,97.71
2019-05-01T05:44:08.098Z,97.51
2019-05-01T05:45:09.487Z,97.61
2019-05-01T05:46:10.882Z,97.42
2019-05-01T05:47:12.271Z,96.94
2019-05-01T05:48:13.665Z,97.51
2019-05-01T05:49:15.053Z,97.71
2019-05-01T05:50:16.452Z,97.61
2019-05-01T05:51:17.850Z,97.71
2019-05-01T05:52:19.242Z,98.27
2019-05-01T05:53:20.636Z,97.99
2019-05-01T05:54:22.032Z,97.89
2019-05-01T05:55:23.429Z,98.08
2019-05-01T05:56:24.821Z,97.80
2019-05-01T05:57:26.220Z,97.42
2019-05-01T05:58:27.615Z,97.42
2019-05-01T05:59:29.016Z,96.66
2019-05-01T06:00:30.409Z,95.51
2019-05-01T06:01:31.804Z,95.51
2019-05-01T06:02:33.202Z,95.79
2019-05-01T06:03:35.181Z,96.17
2019-05-01T06:04:35.959Z,95.51
2019-05-01T06:05:37.345Z,95.32
2019-05-01T06:06:38.740Z,95.41
2019-05-01T06:07:40.137Z,95.12
2019-05-01T06:08:41.616Z,95.41
2019-05-01T06:09:44.762Z,94.93
2019-05-01T06:10:44.250Z,95.41
2019-05-01T06:11:45.667Z,94.56
2019-05-01T06:12:48.560Z,94.56
2019-05-01T06:13:48.439Z,94.84
2019-05-01T06:14:49.833Z,94.56
2019-05-01T06:15:51.223Z,94.51
2019-05-01T06:16:53.996Z,94.41
2019-05-01T06:17:53.978Z,94.31
2019-05-01T06:18:55.375Z,93.17
2019-05-01T06:19:56.782Z,93.07
2019-05-01T06:21:02.217Z,93.51
2019-05-01T06:21:59.528Z,93.51
2019-05-01T06:23:00.927Z,93.70
2019-05-01T06:24:06.551Z,93.88
2019-05-01T06:25:03.678Z,93.93
2019-05-01T06:26:05.088Z,94.70
2019-05-01T06:27:08.878Z,93.65
2019-05-01T06:28:07.826Z,93.36
2019-05-01T06:29:09.217Z,92.97
2019-05-01T06:30:10.979Z,93.07
2019-05-01T06:31:11.978Z,93.55
2019-05-01T06:32:13.374Z,92.88
2019-05-01T06:33:14.767Z,93.07
2019-05-01T06:34:16.154Z,93.36
2019-05-01T06:35:17.555Z,93.46
2019-05-01T06:36:18.940Z,94.12
2019-05-01T06:37:20.837Z,94.31
2019-05-01T06:38:21.694Z,93.55
2019-05-01T06:39:23.094Z,93.74
2019-05-01T06:40:24.483Z,93.46
2019-05-01T06:41:28.614Z,92.60
2019-05-01T06:42:27.239Z,92.74
2019-05-01T06:43:28.639Z,92.83
2019-05-01T06:44:33.557Z,92.79
2019-05-01T06:45:31.389Z,92.79
2019-05-01T06:46:35.263Z,92.97
2019-05-01T06:47:38.041Z,92.60
2019-05-01T06:48:35.498Z,92.50
2019-05-01T06:49:36.898Z,92.31
2019-05-01T06:50:41.555Z,91.93
2019-05-01T06:51:39.656Z,91.74
2019-05-01T06:52:41.060Z,92.12
2019-05-01T06:53:42.462Z,91.55
2019-05-01T06:54:47.663Z,91.36
2019-05-01T06:55:45.211Z,90.54
2019-05-01T06:56:47.605Z,90.45
2019-05-01T06:57:49.008Z,90.16
2019-05-01T06:58:51.086Z,90.06
2019-05-01T06:59:51.778Z,89.20
2019-05-01T07:00:53.172Z,88.82
2019-05-01T07:01:58.480Z,88.06
2019-05-01T07:02:55.929Z,88.15
2019-05-01T07:04:03.366Z,87.91
2019-05-01T07:04:58.692Z,87.43
2019-05-01T07:06:00.095Z,86.29
2019-05-01T07:07:01.931Z,84.89
2019-05-01T07:08:02.848Z,82.17
2019-05-01T07:09:07.002Z,80.43
2019-05-01T07:10:05.610Z,77.40
2019-05-01T07:11:10.933Z,75.20
2019-05-01T07:12:08.361Z,74.57
2019-05-01T07:13:09.766Z,73.90
2019-05-01T07:14:15.773Z,72.36
2019-05-01T07:15:12.546Z,71.69
2019-05-01T07:16:13.962Z,70.92
2019-05-01T07:17:15.366Z,70.35
2019-05-01T07:18:18.838Z,70.29
2019-05-01T07:19:18.124Z,70.19
2019-05-01T07:20:19.523Z,70.64
2019-05-01T07:21:22.763Z,70.64
2019-05-01T07:22:22.316Z,71.66
2019-05-01T07:23:23.694Z,71.17
2019-05-01T07:24:27.954Z,71.94
2019-05-01T07:25:26.452Z,71.84
2019-05-01T07:26:27.854Z,72.42
2019-05-01T07:27:29.264Z,72.29
2019-05-01T07:28:34.195Z,72.38
2019-05-01T07:29:32.963Z,71.84
2019-05-01T07:30:33.388Z,72.48
2019-05-01T07:31:34.793Z,71.81
2019-05-01T07:32:36.418Z,72.19
2019-05-01T07:33:37.571Z,71.75
2019-05-01T07:34:38.972Z,71.94
2019-05-01T07:35:40.378Z,71.56
2019-05-01T07:36:45.524Z,71.46
2019-05-01T07:37:43.137Z,70.89
2019-05-01T07:38:44.545Z,70.79
2019-05-01T07:39:49.953Z,70.70
2019-05-01T07:40:47.336Z,70.50
2019-05-01T07:41:48.733Z,70.50
2019-05-01T07:42:50.139Z,70.89
2019-05-01T07:43:54.974Z,70.60
2019-05-01T07:44:52.900Z,70.98
2019-05-01T07:45:54.297Z,71.27
2019-05-01T07:46:56.256Z,71.81
2019-05-01T07:48:00.983Z,72.86
2019-05-01T07:48:58.418Z,72.67
2019-05-01T07:49:59.820Z,72.96
2019-05-01T07:51:01.955Z,73.24
2019-05-01T07:52:02.582Z,74.11
2019-05-01T07:53:03.975Z,73.63
2019-05-01T07:54:08.753Z,74.01
2019-05-01T07:55:06.771Z,73.91
2019-05-01T07:56:08.160Z,74.11
2019-05-01T07:57:09.568Z,73.44
2019-05-01T07:58:16.029Z,73.69
2019-05-01T07:59:12.340Z,73.69
2019-05-01T08:00:13.737Z,74.36
2019-05-01T08:01:18.320Z,74.55
2019-05-01T08:02:16.504Z,75.12
2019-05-01T08:03:17.911Z,74.36
2019-05-01T08:04:35.297Z,74.45
2019-05-01T08:05:20.677Z,73.69
2019-05-01T08:06:22.922Z,73.97
2019-05-01T08:07:23.439Z,74.36
2019-05-01T08:08:24.847Z,74.93
2019-05-01T08:09:26.247Z,75.02
2019-05-01T08:10:30.828Z,74.07
2019-05-01T08:11:29.014Z,74.45
2019-05-01T08:12:30.429Z,74.49
2019-05-01T08:13:34.965Z,73.91
2019-05-01T08:14:33.205Z,74.01
2019-05-01T08:15:34.603Z,73.72
2019-05-01T08:16:37.855Z,73.19
2019-05-01T08:17:37.405Z,72.42
2019-05-01T08:18:38.821Z,71.78
2019-05-01T08:19:40.714Z,69.62
2019-05-01T08:20:41.554Z,68.21
2019-05-01T08:21:42.962Z,66.49
2019-05-01T08:22:44.357Z,65.84
2019-05-01T08:23:47.228Z,64.05
2019-05-01T08:24:47.160Z,63.35
2019-05-01T08:25:48.579Z,63.06
2019-05-01T08:26:49.967Z,63.45
2019-05-01T08:27:55.836Z,64.28
2019-05-01T08:28:52.787Z,64.22
2019-05-01T08:29:54.191Z,63.76
2019-05-01T08:30:55.605Z,62.42
2019-05-01T08:31:58.735Z,61.27
2019-05-01T08:32:58.409Z,61.75
2019-05-01T08:33:59.819Z,61.75
2019-05-01T08:35:02.419Z,60.53
2019-05-01T08:36:06.678Z,59.63
2019-05-01T08:37:06.480Z,57.64
2019-05-01T08:38:05.935Z,56.10
2019-05-01T08:39:09.228Z,55.81
2019-05-01T08:40:08.705Z,55.88
2019-05-01T08:41:10.114Z,57.58
2019-05-01T08:42:11.512Z,58.42
2019-05-01T08:43:13.687Z,59.95
2019-05-01T08:44:14.306Z,59.66
2019-05-01T08:45:15.718Z,59.38
2019-05-01T08:46:17.776Z,60.05
2019-05-01T08:47:20.786Z,59.19
2019-05-01T08:48:19.854Z,59.38
2019-05-01T08:49:21.266Z,59.19
2019-05-01T08:50:24.817Z,59.69
2019-05-01T08:51:24.057Z,57.22
2019-05-01T08:52:25.457Z,56.16
2019-05-01T08:53:26.900Z,56.07
2019-05-01T08:54:29.043Z,56.26
2019-05-01T08:55:29.856Z,56.16
2019-05-01T08:56:31.271Z,56.38
2019-05-01T08:57:34.553Z,54.13
2019-05-01T08:58:34.077Z,53.13
2019-05-01T08:59:35.612Z,50.93
2019-05-01T09:00:40.956Z,49.77
2019-05-01T09:01:38.380Z,50.04
2019-05-01T09:02:41.638Z,50.88
2019-05-01T09:03:41.155Z,50.71
2019-05-01T09:04:42.557Z,51.10
2019-05-01T09:05:44.014Z,51.07
2019-05-01T09:06:45.458Z,51.72
2019-05-01T09:07:46.870Z,51.98
2019-05-01T09:08:48.213Z,53.33
2019-05-01T09:09:49.623Z,53.05
2019-05-01T09:10:54.815Z,52.20
2019-05-01T09:11:54.551Z,52.01
2019-05-01T09:12:53.764Z,51.68
2019-05-01T09:13:58.787Z,50.04
2019-05-01T09:14:56.543Z,49.96
2019-05-01T09:15:57.983Z,48.74
2019-05-01T09:16:59.398Z,48.37
2019-05-01T09:18:00.802Z,46.64
2019-05-01T09:19:02.212Z,46.56
2019-05-01T09:20:03.624Z,45.33
2019-05-01T09:21:05.041Z,44.92
2019-05-01T09:22:06.468Z,45.76
2019-05-01T09:23:09.576Z,46.47
2019-05-01T09:24:09.246Z,46.37
2019-05-01T09:25:10.666Z,46.17
2019-05-01T09:26:15.931Z,45.45
2019-05-01T09:27:13.450Z,44.38
2019-05-01T09:28:14.857Z,43.80
2019-05-01T09:29:17.828Z,43.24
2019-05-01T09:30:21.685Z,42.83
2019-05-01T09:31:19.041Z,43.24
2019-05-01T09:32:20.439Z,42.49
2019-05-01T09:33:21.851Z,42.57
2019-05-01T09:34:23.281Z,42.76
2019-05-01T09:35:24.697Z,42.93
2019-05-01T09:36:26.111Z,42.68
2019-05-01T09:37:27.520Z,42.22
2019-05-01T09:38:28.953Z,41.45
2019-05-01T09:39:30.354Z,40.69
2019-05-01T09:40:31.775Z,39.36
2019-05-01T09:41:38.333Z,38.70
2019-05-01T09:42:34.570Z,38.78
2019-05-01T09:43:36.943Z,39.51
2019-05-01T09:44:37.385Z,40.56
2019-05-01T09:45:38.800Z,41.33
2019-05-01T09:46:40.212Z,41.41
2019-05-01T09:47:41.627Z,42.16
2019-05-01T09:48:43.051Z,42.99
2019-05-01T09:49:44.483Z,44.32
2019-05-01T09:50:45.900Z,45.45
2019-05-01T09:51:47.607Z,46.20
2019-05-01T09:52:48.690Z,46.95
2019-05-01T09:53:50.102Z,47.63
2019-05-01T09:54:51.514Z,48.76
2019-05-01T09:55:52.927Z,49.15
2019-05-01T09:56:54.349Z,48.64
2019-05-01T09:57:55.766Z,49.15
2019-05-01T09:58:57.198Z,48.86
2019-05-01T09:59:58.610Z,49.65
2019-05-01T10:01:00.006Z,48.66
2019-05-01T10:02:02.955Z,48.79
2019-05-01T10:03:02.776Z,48.57
2019-05-01T10:04:05.580Z,48.40
2019-05-01T10:05:06.638Z,47.67
2019-05-01T10:06:07.005Z,46.56
2019-05-01T10:07:08.466Z,44.09
2019-05-01T10:08:09.898Z,42.86
2019-05-01T10:09:12.010Z,41.72
2019-05-01T10:10:12.805Z,41.04
2019-05-01T10:11:14.211Z,40.77
2019-05-01T10:12:15.645Z,40.46
2019-05-01T10:13:17.767Z,41.58
2019-05-01T10:14:18.479Z,41.87
2019-05-01T10:15:19.890Z,42.52
2019-05-01T10:16:21.307Z,43.16
2019-05-01T10:17:22.716Z,45.07
2019-05-01T10:18:24.151Z,44.12
2019-05-01T10:19:25.562Z,43.59
2019-05-01T10:20:26.968Z,43.23
2019-05-01T10:21:28.969Z,41.87
2019-05-01T10:22:32.933Z,41.62
2019-05-01T10:23:31.108Z,40.75
2019-05-01T10:24:37.291Z,40.31
2019-05-01T10:25:33.893Z,41.27
2019-05-01T10:26:35.301Z,40.65
2019-05-01T10:27:37.466Z,39.88
2019-05-01T10:28:38.081Z,40.73
2019-05-01T10:29:39.500Z,41.11
2019-05-01T10:30:40.909Z,42.07
2019-05-01T10:31:42.904Z,42.52
2019-05-01T10:32:43.679Z,42.99
2019-05-01T10:33:45.095Z,43.45
2019-05-01T10:34:46.497Z,44.78
2019-05-01T10:35:47.906Z,45.94
2019-05-01T10:36:49.903Z,45.92
2019-05-01T10:37:50.693Z,46.69
2019-05-01T10:38:52.105Z,47.72
2019-05-01T10:39:54.174Z,47.82
2019-05-01T10:40:54.872Z,48.69
2019-05-01T10:41:56.286Z,48.52
2019-05-01T10:42:57.704Z,47.72
2019-05-01T10:43:59.100Z,48.30
2019-05-01T10:45:00.526Z,48.11
2019-05-01T10:46:01.963Z,47.72
2019-05-01T10:47:03.361Z,48.18
2019-05-01T10:48:04.770Z,48.28
2019-05-01T10:49:06.222Z,48.66
2019-05-01T10:50:07.586Z,48.83
2019-05-01T10:51:08.988Z,49.02
2019-05-01T10:52:14.398Z,49.70
2019-05-01T10:53:11.772Z,50.27
2019-05-01T10:54:13.180Z,49.43
2019-05-01T10:55:14.592Z,48.40
2019-05-01T10:56:16.002Z,47.55
2019-05-01T10:57:17.405Z,46.61
2019-05-01T10:58:20.229Z,46.51
2019-05-01T10:59:20.202Z,46.25
2019-05-01T11:00:21.620Z,44.46
2019-05-01T11:01:23.031Z,43.23
2019-05-01T11:02:24.442Z,42.28
2019-05-01T11:03:25.846Z,42.25
2019-05-01T11:04:27.266Z,42.25
2019-05-01T11:05:28.661Z,41.79
2019-05-01T11:06:30.081Z,41.52
2019-05-01T11:07:31.480Z,41.24
2019-05-01T11:08:32.896Z,41.11
2019-05-01T11:09:34.303Z,42.16
2019-05-01T11:10:35.712Z,43.08
2019-05-01T11:11:37.114Z,44.29
2019-05-01T11:12:38.526Z,45.92
2019-05-01T11:13:39.935Z,47.22
2019-05-01T11:14:41.334Z,49.51
2019-05-01T11:15:42.756Z,50.47
2019-05-01T11:16:44.160Z,50.27
2019-05-01T11:17:45.589Z,50.37
2019-05-01T11:18:46.995Z,49.73
2019-05-01T11:19:48.411Z,48.52
2019-05-01T11:20:49.813Z,46.81
2019-05-01T11:21:51.219Z,46.34
2019-05-01T11:22:52.644Z,46.51
2019-05-01T11:23:54.041Z,47.36
2019-05-01T11:24:55.459Z,48.21
2019-05-01T11:25:56.860Z,49.27
2019-05-01T11:26:58.263Z,50.27
2019-05-01T11:27:59.675Z,51.98
2019-05-01T11:29:01.100Z,52.83
2019-05-01T11:30:02.519Z,53.78
2019-05-01T11:31:03.919Z,54.05
2019-05-01T11:32:05.324Z,55.11
2019-05-01T11:33:06.727Z,55.85
2019-05-01T11:34:08.146Z,56.30
2019-05-01T11:35:09.562Z,57.65
2019-05-01T11:36:10.972Z,58.70
2019-05-01T11:37:12.392Z,59.25
2019-05-01T11:38:13.800Z,59.64
2019-05-01T11:39:15.203Z,60.88
2019-05-01T11:40:16.610Z,60.38
2019-05-01T11:41:18.016Z,60.57
2019-05-01T11:42:19.425Z,61.43
2019-05-01T11:43:20.858Z,60.95
2019-05-01T11:44:22.319Z,61.14
2019-05-01T11:45:23.725Z,60.47
2019-05-01T11:46:25.128Z,60.57
2019-05-01T11:47:26.535Z,60.38
2019-05-01T11:48:30.079Z,61.24
2019-05-01T11:49:29.321Z,60.95
2019-05-01T11:50:30.743Z,60.75
2019-05-01T11:51:32.169Z,61.08
2019-05-01T11:52:33.597Z,60.02
2019-05-01T11:53:35.016Z,59.57
2019-05-01T11:54:36.419Z,58.22
2019-05-01T11:55:37.815Z,57.75
2019-05-01T11:56:39.225Z,57.00
2019-05-01T11:57:40.636Z,56.33
2019-05-01T11:58:42.040Z,55.98
2019-05-01T11:59:43.450Z,55.11
2019-05-01T12:00:44.796Z,54.72
2019-05-01T12:01:46.213Z,54.82
2019-05-01T12:02:47.628Z,55.68
2019-05-01T12:03:49.075Z,55.01
2019-05-01T12:04:50.436Z,55.49
2019-05-01T12:05:51.836Z,55.30
2019-05-01T12:06:53.234Z,55.62
2019-05-01T12:07:54.647Z,55.13
2019-05-01T12:08:56.058Z,54.94
2019-05-01T12:09:57.471Z,55.33
2019-05-01T12:10:58.888Z,55.23
2019-05-01T12:12:00.330Z,54.75
2019-05-01T12:13:01.739Z,54.08
2019-05-01T12:14:03.142Z,53.98
2019-05-01T12:15:04.552Z,54.17
2019-05-01T12:16:05.957Z,54.56
2019-05-01T12:17:07.361Z,54.63
2019-05-01T12:18:08.763Z,55.30
2019-05-01T12:19:10.169Z,55.18
2019-05-01T12:20:11.577Z,56.30
2019-05-01T12:21:12.995Z,56.91
2019-05-01T12:22:14.397Z,57.29
2019-05-01T12:23:15.815Z,57.58
2019-05-01T12:24:17.224Z,57.20
2019-05-01T12:25:18.677Z,56.98
2019-05-01T12:26:20.076Z,57.93
2019-05-01T12:27:21.485Z,57.93
2019-05-01T12:28:22.900Z,58.80
2019-05-01T12:29:24.305Z,59.44
2019-05-01T12:30:25.737Z,60.11
2019-05-01T12:31:27.132Z,60.40
2019-05-01T12:32:28.606Z,60.60
2019-05-01T12:33:31.282Z,60.31
2019-05-01T12:34:33.572Z,59.64
2019-05-01T12:35:34.928Z,59.73
2019-05-01T12:36:36.761Z,59.54
2019-05-01T12:37:38.226Z,59.47
2019-05-01T12:38:39.644Z,59.34
2019-05-01T12:39:41.435Z,59.47
2019-05-01T12:40:43.205Z,59.54
2019-05-01T12:41:44.606Z,59.95
2019-05-01T12:42:46.013Z,61.08
2019-05-01T12:43:47.415Z,60.31
2019-05-01T12:44:48.825Z,60.88
2019-05-01T12:45:50.225Z,61.27
2019-05-01T12:46:51.673Z,60.40
2019-05-01T12:47:53.073Z,60.98
2019-05-01T12:48:54.477Z,61.94
2019-05-01T12:49:55.885Z,60.88
2019-05-01T12:50:57.308Z,60.85
2019-05-01T12:52:09.910Z,61.36
2019-05-01T12:53:00.084Z,61.62
2019-05-01T12:54:01.487Z,62.19
2019-05-01T12:55:02.896Z,62.29
2019-05-01T12:56:04.313Z,62.10
2019-05-01T12:57:05.709Z,62.19
2019-05-01T12:58:07.107Z,62.19
2019-05-01T12:59:08.513Z,61.75
2019-05-01T13:00:09.927Z,61.81
2019-05-01T13:01:11.324Z,61.43
2019-05-01T13:02:12.722Z,60.75
2019-05-01T13:03:14.128Z,61.72
2019-05-01T13:04:15.530Z,61.43
2019-05-01T13:05:16.936Z,61.62
2019-05-01T13:06:18.332Z,62.77
2019-05-01T13:07:19.742Z,62.55
2019-05-01T13:08:21.140Z,62.26
2019-05-01T13:09:22.544Z,62.93
2019-05-01T13:10:24.099Z,63.03